• Join FlightAware (Why Join?)
  • Login
  • US Flag 
05:47PM EDT


 

Airport Tracker/Info


-or-


 

Live Flight TrackerFlight Track Log ✈ UPS1122 ✈ 06-Jun-2013 ✈ KPHL - KBDL

Flight Track Log - Related Links

Times and Time Zones

All times are in EDT time to prevent confusion due to time zone crossing. See the UPS1122 flight status page for this flight to view local times or setup timezone preferences in your user account.

Time Position Orientation Groundspeed Altitude Reporting Facility
EDT Latitude Longitude Course Direction KTS MPH feet Rate Location/Type
03:38AM 39.8672 -75.2436 75° East 157 181 700  Level FlightAware ADS-B
03:39AM 39.8686 -75.2369 75° East 160 184 1,100 2,100 Climbing FlightAware ADS-B
03:39AM 39.8711 -75.2260 73° East 168 193 1,400 1,080 Climbing FlightAware ADS-B
03:39AM 39.8737 -75.2159 71° East 179 206 1,500 480 Climbing FlightAware ADS-B
03:39AM 39.8777 -75.2021 69° East 196 226 1,600 600 Climbing FlightAware ADS-B
03:39AM 39.8796 -75.1954 70° East 204 235 1,700 1,800 Climbing FlightAware ADS-B
03:39AM 39.8808 -75.1905 72° East 209 241 1,900 2,520 Climbing FlightAware ADS-B
03:39AM 39.8815 -75.1866 77° East 209 241 2,000 2,520 Climbing FlightAware ADS-B
03:39AM 39.8820 -75.1815 83° East 209 241 2,200 3,300 Climbing FlightAware ADS-B
03:39AM 39.8818 -75.1747 92° East 208 239 2,500 3,000 Climbing FlightAware ADS-B
03:40AM 39.8809 -75.1690 102° East 207 238 2,700 3,300 Climbing FlightAware ADS-B
03:40AM 39.8796 -75.1643 110° East 206 237 3,000 4,260 Climbing FlightAware ADS-B
03:40AM 39.8783 -75.1603 113° Southeast 206 237 3,200 2,700 Climbing FlightAware ADS-B
03:40AM 39.8756 -75.1519 113° Southeast 211 243 3,500 2,460 Climbing FlightAware ADS-B
03:40AM 39.8742 -75.1470 110° East 216 249 3,700 2,640 Climbing FlightAware ADS-B
03:40AM 39.8725 -75.1398 107° East 224 258 3,900 2,100 Climbing FlightAware ADS-B
03:40AM 39.8689 -75.1196 103° East 246 283 4,400 2,340 Climbing FlightAware ADS-B
03:40AM 39.8647 -75.0916 101° East 260 299 5,200 3,120 Climbing FlightAware ADS-B
03:41AM 39.8605 -75.0662 102° East 265 305 6,200 3,600 Climbing FlightAware ADS-B
03:41AM 39.8570 -75.0475 104° East 268 308 6,900 3,360 Climbing FlightAware ADS-B
03:41AM 39.8558 -75.0411 104° East 270 311 7,100 2,760 Climbing FlightAware ADS-B
03:41AM 39.8523 -75.0236 105° East 276 318 7,600 2,820 Climbing FlightAware ADS-B
03:41AM 39.8501 -75.0119 104° East 278 320 8,000 3,000 Climbing FlightAware ADS-B
03:42AM 39.8469 -74.9918 102° East 283 326 8,600 3,120 Climbing FlightAware ADS-B
03:42AM 39.8447 -74.9790 103° East 286 329 9,000 3,120 Climbing FlightAware ADS-B
03:42AM 39.8397 -74.9531 104° East 290 334 9,800 2,460 Climbing FlightAware ADS-B
03:42AM 39.8294 -74.8989 104° East 319 367 10,900 1,740 Climbing FlightAware ADS-B
03:43AM 39.8211 -74.8522 103° East 346 398 11,400 1,440 Climbing FlightAware ADS-B
03:43AM 39.8196 -74.8345 96° East 355 409 11,700 2,220 Climbing FlightAware ADS-B
03:43AM 39.8203 -74.8180 87° East 361 415 12,000 2,400 Climbing FlightAware ADS-B
03:43AM 39.8235 -74.8004 77° East 368 423 12,300 2,700 Climbing FlightAware ADS-B
03:43AM 39.8323 -74.7774 64° Northeast 377 434 12,900 3,180 Climbing FlightAware ADS-B
03:43AM 39.8359 -74.7712 53° Northeast 380 437 13,100 3,300 Climbing FlightAware ADS-B
03:44AM 39.8551 -74.7472 44° Northeast 386 444 13,900 3,240 Climbing FlightAware ADS-B
03:44AM 39.9034 -74.7019 36° Northeast 399 459 15,700 3,120 Climbing FlightAware ADS-B
03:45AM 39.9496 -74.6598 35° Northeast 411 473 17,200 3,000 Climbing FlightAware ADS-B
03:45AM 39.9970 -74.6155 36° Northeast 422 486 18,700 3,000 Climbing FlightAware ADS-B
03:46AM 40.0448 -74.5701 36° Northeast 427 491 20,200 2,280 Climbing FlightAware ADS-B
03:46AM 40.0930 -74.5241 36° Northeast 425 489 21,000 780 Climbing FlightAware ADS-B
03:47AM 40.1411 -74.4781 36° Northeast 422 486 21,000  Level FlightAware ADS-B
03:47AM 40.1889 -74.4323 36° Northeast 421 484 21,000  Level FlightAware ADS-B
03:48AM 40.2364 -74.3870 36° Northeast 420 483 21,000  Level FlightAware ADS-B
03:48AM 40.2833 -74.3420 36° Northeast 417 480 21,000  Level FlightAware ADS-B
03:49AM 40.3306 -74.2969 36° Northeast 419 482 21,000  Level FlightAware ADS-B
03:49AM 40.3789 -74.2508 36° Northeast 419 482 21,000  Level FlightAware ADS-B
03:50AM 40.4265 -74.2050 36° Northeast 420 483 21,000  Level FlightAware ADS-B
03:50AM 40.4739 -74.1592 36° Northeast 421 484 21,000  Level FlightAware ADS-B
03:51AM 40.5209 -74.1135 36° Northeast 421 484 21,000  Level FlightAware ADS-B
03:51AM 40.5681 -74.0676 36° Northeast 423 487 21,000  Level FlightAware ADS-B
03:52AM 40.6160 -74.0209 36° Northeast 424 488 21,000  Level FlightAware ADS-B
03:52AM 40.6643 -73.9738 36° Northeast 424 488 21,000  Level FlightAware ADS-B
03:53AM 40.7117 -73.9275 37° Northeast 424 488 21,000  Level FlightAware ADS-B
03:53AM 40.7601 -73.8803 36° Northeast 424 488 21,000  Level FlightAware ADS-B
03:54AM 40.8078 -73.8337 36° Northeast 425 489 21,000  Level FlightAware ADS-B
03:54AM 40.8554 -73.7870 37° Northeast 424 488 21,000  Level FlightAware ADS-B
03:55AM 40.9032 -73.7400 37° Northeast 423 487 21,000  Level FlightAware ADS-B
03:55AM 40.9510 -73.6931 37° Northeast 422 486 21,000  Level FlightAware ADS-B
03:56AM 40.9987 -73.6464 36° Northeast 422 486 21,000  Level FlightAware ADS-B
03:56AM 41.0457 -73.6002 37° Northeast 421 484 21,000  Level FlightAware ADS-B
03:57AM 41.0930 -73.5537 37° Northeast 421 484 21,000  Level FlightAware ADS-B
03:57AM 41.1409 -73.5065 37° Northeast 422 486 21,000  Level FlightAware ADS-B
03:58AM 41.1893 -73.4585 37° Northeast 422 486 21,000  Level FlightAware ADS-B
03:58AM 41.2365 -73.4116 37° Northeast 420 483 21,000 -720 Level FlightAware ADS-B
03:59AM 41.2827 -73.3656 37° Northeast 408 470 20,300 -1,620 Descending FlightAware ADS-B
03:59AM 41.3286 -73.3206 36° Northeast 401 461 19,400 -2,280 Descending FlightAware ADS-B
04:00AM 41.3738 -73.2784 35° Northeast 390 449 18,000 -3,240 Descending FlightAware ADS-B
04:00AM 41.4178 -73.2365 36° Northeast 383 441 16,200 -2,100 Descending FlightAware ADS-B
04:01AM 41.4900 -73.1690 35° Northeast 389 448 15,000 -3,660 Descending FlightAware
04:02AM 41.5205 -73.1380 37° Northeast 390 449 11,900 -6,540 Descending FlightAware ADS-B
04:02AM 41.5461 -73.1142 37° Northeast 380 437 11,200 -1,320 Descending Boston Center
04:02AM 41.5628 -73.1003 32° Northeast 377 434 11,000 -1,200 Descending Boston Center
04:03AM 41.6214 -73.0456 35° Northeast 316 364 10,000 -1,740 Descending Boston Center
04:03AM 41.6403 -73.0261 38° Northeast 329 379 9,300 -2,460 Descending Boston Center
04:04AM 41.6800 -72.9850 38° Northeast 297 342 7,800 -2,100 Descending Boston Center
04:04AM 41.7011 -72.9683 31° Northeast 294 338 7,200 -2,100 Descending Boston Center
04:05AM 41.7428 -72.9242 38° Northeast 272 313 5,700 -2,520 Descending Boston Center
04:05AM 41.7658 -72.9050 32° Northeast 280 322 4,700 -2,280 Descending Boston Center
04:06AM 41.8014 -72.8689 37° Northeast 267 307 3,400 -1,740 Descending Boston Center
04:06AM 41.8181 -72.8494 41° Northeast 262 302 3,000 -900 Descending Boston Center
04:07AM 41.8475 -72.8108 44° Northeast 218 251 2,500 -840 Descending Boston Center
04:07AM 41.8600 -72.7942 45° Northeast 240 276 2,200 -900 Descending Boston Center
04:08AM 41.8831 -72.7664 42° Northeast 182 209 1,600 -900 Descending Boston Center
04:08AM 41.8914 -72.7525 51° Northeast 197 227 1,300 -840 Descending Boston Center
04:09AM 41.9103 -72.7303 41° Northeast 139 160 800 -720 Descending Boston Center
04:09AM 41.9186 -72.7192 45° Northeast 152 175 600 -420 Descending Boston Center
04:10AM 41.9500 -72.6744 47° Northeast 139 160 300 -300 Descending Boston Center
04:15AM 41.9333 -72.6833 223° Southwest  Level FlightAware Approximate
04:22AM 41.9392 -72.6834 223° Southwest  Level Estimated
04:23AM 41.9333 -72.6833 223° Southwest  Level FlightAware Approximate
04:24AM 41.9392 -72.6834 223° Southwest  Level Estimated
04:25AM 41.9333 -72.6833 223° Southwest  Level FlightAware Approximate